Latest Weather Observations for Camooweal

IDD60801

Issued at 7:05 pm CST Friday 28 November 2014 (issued every 30 minutes, with the page automatically refreshed every 10 minutes)

About weather observations | Map of weather stations | Latest weather observations for NT | Other Formats
Station Details ID: 037010 Name: CAMOOWEAL TOWNSHIP Lat: -19.92 Lon: 138.12 Height: 231.2 m
Data from the previous 72 hours. | See also: Recent months at Camooweal
Date/Time
CST
Temp
°C
App
Temp
°C
Dew
Point
Rel
Hum
%
Delta-T
°C
Wind Press
QNH
hPa
Press
MSL
hPa
Rain
since 9 am
mm
Dir
 
Spd
km/h
Gust
km/h
Spd
kts
Gust
kts
28/07:00pm 28.5 28.5 21.0 64 5.0 NW 22 28 12 15 1008.2 1006.5 18.6
28/06:30pm 27.3 27.2 22.3 74 3.4 N 26 37 14 20 1007.6 1005.9 18.6
28/06:00pm 27.2 28.2 21.7 72 3.7 SSE 19 24 10 13 1008.0 1006.3 12.0
28/05:50pm 28.1 25.7 19.1 58 5.9 SSW 30 69 16 37 1007.2 1005.5 3.6
28/05:46pm 30.7 30.1 20.6 54 6.8 SE 24 30 13 16 1007.1 1005.4 1.0
28/05:30pm 36.3 34.5 15.9 29 13.1 E 20 28 11 15 1006.0 1004.4 0.0
28/05:00pm 37.2 36.8 15.1 27 14.0 NE 11 20 6 11 1005.8 1004.2 0.0
28/04:30pm 38.0 39.1 14.5 24 14.8 NE 2 7 1 4 1005.8 1004.2 0.0
28/04:00pm 38.3 38.9 15.4 25 14.6 ENE 6 11 3 6 1005.8 1004.2 0.0
28/03:30pm 36.8 37.2 15.3 28 13.7 E 7 15 4 8 1006.3 1004.6 0.0
28/03:00pm 37.7 37.4 15.5 27 14.2 NE 11 17 6 9 1006.8 1005.1 0.0
28/02:30pm 37.4 36.8 14.6 25 14.4 N 11 20 6 11 1007.3 1005.6 0.0
28/02:00pm 37.3 37.5 15.7 27 13.8 SSE 9 20 5 11 1007.7 1006.0 0.0
28/01:30pm 37.4 37.8 16.4 29 13.6 E 9 15 5 8 1008.2 1006.5 0.0
28/01:00pm 37.0 37.3 16.0 28 13.5 NE 9 17 5 9 1008.7 1007.0 0.0
28/12:30pm 35.8 36.5 15.5 29 12.9 W 6 11 3 6 1009.3 1007.7 0.0
28/12:00pm 36.2 36.1 15.9 30 13.0 N 11 20 6 11 1009.7 1008.1 0.0
28/11:30am 35.1 35.0 15.9 31 12.2 ENE 11 20 6 11 1010.2 1008.6 0.0
28/11:00am 35.9 36.2 17.1 32 12.2 E 11 20 6 11 1010.7 1009.0 0.0
28/10:30am 34.9 36.0 18.0 36 11.1 NE 9 17 5 9 1011.2 1009.5 0.0
28/10:00am 34.2 35.4 18.3 39 10.4 E 9 15 5 8 1011.5 1009.8 0.0
28/09:30am 32.3 33.4 18.8 44 8.9 NNE 11 19 6 10 1011.8 1010.1 0.0
28/09:00am 31.3 33.1 19.6 49 7.8 NE 9 15 5 8 1011.8 1010.1 0.0
28/08:30am 29.7 32.1 20.0 56 6.4 NNE 7 11 4 6 1011.8 1010.1 0.2
28/08:00am 28.2 30.6 19.7 60 5.6 N 6 11 3 6 1011.7 1010.0 0.2
28/07:30am 27.2 29.4 20.5 67 4.4 NNE 9 13 5 7 1011.6 1009.9 0.2
28/07:00am 26.5 29.0 21.0 72 3.7 N 9 13 5 7 1011.2 1009.5 0.2
28/06:30am 26.0 28.6 21.2 75 3.2 N 9 13 5 7 1011.2 1009.5 0.2
28/06:00am 25.8 28.9 21.0 75 3.2 E 6 9 3 5 1010.7 1009.0 0.2
28/05:30am 25.6 28.8 20.6 74 3.3 E 4 9 2 5 1010.8 1009.1 0.2
28/05:00am 26.1 28.8 20.2 70 3.9 SSW 6 7 3 4 1010.4 1008.8 0.2
28/04:30am 25.9 28.5 20.5 72 3.6 WSW 7 9 4 5 1010.4 1008.8 0.2
28/04:00am 25.7 29.6 20.3 72 3.6 CALM 0 0 0 0 1010.3 1008.7 0.2
28/03:30am 25.7 29.8 20.7 74 3.3 CALM 0 0 0 0 1010.5 1008.9 0.2
28/03:00am 25.8 28.4 20.4 72 3.6 SE 7 9 4 5 1010.7 1009.0 0.2
28/02:30am 25.4 28.0 20.4 74 3.3 SE 7 9 4 5 1010.9 1009.2 0.2
28/02:00am 25.8 26.0 20.1 71 3.7 E 19 22 10 12 1010.9 1009.2 0.2
28/01:30am 27.8 30.0 20.4 64 4.9 E 9 17 5 9 1010.9 1009.2 0.2
28/01:00am 27.6 30.1 19.9 63 5.1 NE 6 9 3 5 1010.7 1009.0 0.2
28/12:30am 27.7 30.0 19.8 62 5.2 E 7 7 4 4 1011.1 1009.4 0.2
28/12:00am 27.9 29.8 19.7 61 5.4 N 9 13 5 7 1011.4 1009.7 0.2
 
Date/Time
CST
Temp
°C
App
Temp
°C
Dew
Point
Rel
Hum
%
Delta-T
°C
Wind Press
QNH
hPa
Press
MSL
hPa
Rain
since 9 am
mm
Dir
 
Spd
km/h
Gust
km/h
Spd
kts
Gust
kts
27/11:30pm 28.2 29.8 20.0 61 5.4 N 11 15 6 8 1011.7 1010.0 0.2
27/11:00pm 28.3 29.6 20.1 61 5.4 N 13 15 7 8 1011.7 1010.0 0.2
27/10:30pm 28.8 30.7 20.5 61 5.5 N 11 13 6 7 1012.1 1010.4 0.2
27/10:00pm 28.9 31.3 20.9 62 5.4 N 9 17 5 9 1012.2 1010.5 0.2
27/09:30pm 28.8 29.3 20.8 62 5.4 NNE 19 24 10 13 1011.5 1009.8 0.2
27/09:00pm 29.1 29.7 21.1 62 5.4 NNE 19 28 10 15 1011.2 1009.5 0.2
27/08:30pm 28.3 27.4 22.1 69 4.2 NNE 30 43 16 23 1010.3 1008.7 0.2
27/08:00pm 32.7 29.7 17.7 40 9.7 NNE 30 54 16 29 1009.4 1007.8 0.0
27/07:30pm 35.2 34.2 14.5 29 12.9 N 13 19 7 10 1008.7 1007.0 0.0
27/07:00pm 36.2 35.6 13.6 25 14.0 NNE 9 15 5 8 1008.2 1006.5 0.0
27/06:30pm 36.8 35.4 13.5 24 14.4 NE 13 19 7 10 1007.8 1006.1 0.0
27/06:00pm 37.0 35.5 13.1 24 14.7 ENE 13 20 7 11 1007.4 1005.7 0.0
27/05:30pm 37.3 35.1 13.3 23 14.9 ENE 17 24 9 13 1007.2 1005.5 0.0
27/05:00pm 37.8 36.5 13.7 23 15.0 ENE 13 20 7 11 1007.0 1005.3 0.0
27/04:30pm 37.9 36.4 13.2 23 15.3 NE 13 24 7 13 1006.8 1005.1 0.0
27/04:00pm 37.9 37.9 12.5 22 15.6 SE 4 11 2 6 1006.9 1005.2 0.0
27/03:30pm 38.4 37.8 12.2 21 16.0 SE 7 11 4 6 1007.0 1005.3 0.0
27/03:00pm 38.1 37.6 12.7 22 15.6 SSE 7 11 4 6 1007.3 1005.6 0.0
27/02:30pm 38.3 37.5 12.8 22 15.7 SSE 9 17 5 9 1007.5 1005.8 0.0
27/02:00pm 38.1 37.6 12.7 22 15.6 NNE 7 17 4 9 1007.9 1006.2 0.0
27/01:30pm 38.9 37.2 12.6 21 16.2 NE 13 20 7 11 1008.3 1006.6 0.0
27/01:00pm 38.1 36.6 12.0 21 15.9 NNE 11 20 6 11 1008.7 1007.0 0.0
27/12:30pm 38.0 37.1 12.6 22 15.6 NNE 9 20 5 11 1008.9 1007.3 0.0
27/12:00pm 38.8 37.1 12.5 21 16.2 NNE 13 20 7 11 1009.2 1007.6 0.0
27/11:30am 38.3 36.6 13.5 23 15.4 ENE 15 24 8 13 1009.7 1008.1 0.0
27/11:00am 37.0 36.5 14.9 27 14.0 E 11 20 6 11 1009.9 1008.3 0.0
27/10:30am 36.7 35.3 14.6 26 13.9 NE 15 24 8 13 1010.3 1008.7 0.0
27/10:00am 35.8 35.0 15.0 29 13.1 ENE 13 20 7 11 1010.4 1008.8 0.0
27/09:30am 35.1 34.0 15.4 30 12.5 ESE 15 20 8 11 1010.9 1009.2 0.0
27/09:00am 33.7 33.5 15.7 34 11.4 SSE 11 19 6 10 1011.2 1009.5 0.0
27/08:30am 32.5 32.9 16.3 37 10.3 S 9 17 5 9 1011.2 1009.5 0.4
27/08:00am 31.6 32.0 18.2 44 8.7 SSW 13 19 7 10 1011.3 1009.6 0.4
27/07:30am 30.0 31.2 19.1 52 7.1 SW 11 15 6 8 1011.3 1009.6 0.4
27/07:00am 28.2 30.6 19.7 60 5.6 S 6 7 3 4 1011.2 1009.5 0.4
27/06:30am 26.3 30.0 19.9 68 4.2 CALM 0 4 0 2 1010.9 1009.2 0.4
27/06:00am 26.0 29.3 19.9 69 4.0 S 2 7 1 4 1010.9 1009.2 0.4
27/05:30am 26.2 28.6 19.6 67 4.3 SSW 6 7 3 4 1010.4 1008.8 0.4
27/05:00am 26.9 29.2 19.8 65 4.7 WSW 7 9 4 5 1010.2 1008.6 0.4
27/04:30am 26.9 29.5 20.0 66 4.5 W 6 7 3 4 1009.7 1008.1 0.4
27/04:00am 26.5 29.0 20.3 68 4.1 SW 7 7 4 4 1009.5 1007.9 0.4
27/03:30am 26.3 29.0 20.2 69 4.0 SSW 6 7 3 4 1009.4 1007.8 0.4
27/03:00am 26.8 29.4 20.4 68 4.2 S 7 9 4 5 1009.4 1007.8 0.4
27/02:30am 26.9 29.4 21.0 70 3.9 SSW 9 15 5 8 1009.5 1007.9 0.4
27/02:00am 26.7 29.5 21.5 73 3.5 SSW 9 11 5 6 1009.4 1007.8 0.4
27/01:30am 26.6 30.9 21.1 72 3.7 CALM 0 0 0 0 1009.5 1007.9 0.4
27/01:00am 26.6 31.0 21.4 73 3.5 CALM 0 0 0 0 1009.7 1008.1 0.4
27/12:30am 26.3 30.8 21.5 75 3.2 CALM 0 0 0 0 1010.0 1008.4 0.4
27/12:00am 26.3 29.8 21.9 77 3.0 N 6 7 3 4 1010.0 1008.4 0.4
 
Date/Time
CST
Temp
°C
App
Temp
°C
Dew
Point
Rel
Hum
%
Delta-T
°C
Wind Press
QNH
hPa
Press
MSL
hPa
Rain
since 9 am
mm
Dir
 
Spd
km/h
Gust
km/h
Spd
kts
Gust
kts
26/11:30pm 26.4 29.9 21.8 76 3.1 NNE 6 9 3 5 1010.5 1008.9 0.4
26/11:00pm 26.6 31.1 21.6 74 3.4 CALM 0 0 0 0 1010.9 1009.2 0.4
26/10:30pm 26.7 29.7 21.2 72 3.7 N 7 13 4 7 1010.8 1009.1 0.4
26/10:00pm 26.8 29.6 21.5 72 3.6 NNW 9 15 5 8 1010.9 1009.2 0.4
26/09:30pm 26.3 28.3 21.5 75 3.2 NNW 13 19 7 10 1010.5 1008.9 0.4
26/09:00pm 26.3 29.3 21.9 77 3.0 N 9 13 5 7 1010.8 1009.1 0.4
26/08:30pm 26.6 28.6 21.6 74 3.4 N 13 19 7 10 1011.1 1009.4 0.4
26/08:00pm 26.4 28.0 20.7 71 3.8 NNE 13 20 7 11 1011.2 1009.5 0.2
26/07:30pm 26.0 26.8 21.4 76 3.1 NE 19 30 10 16 1010.7 1009.0 0.2
26/07:21pm 26.8 25.3 20.2 67 4.4 ENE 28 37 15 20 1010.5 1008.9 0.0
26/07:00pm 31.8 31.4 18.0 43 8.9 E 17 22 9 12 1010.0 1008.4 0.0
26/06:30pm 31.5 33.2 18.1 44 8.7 NW 6 11 3 6 1008.7 1007.0 0.0
26/06:00pm 31.7 32.3 18.7 46 8.5 NE 13 19 7 10 1008.4 1006.7 0.0
26/05:30pm 31.3 30.8 17.9 44 8.7 ENE 17 26 9 14 1008.3 1006.6 0.0
26/05:00pm 29.8 28.9 19.8 55 6.6 E 24 35 13 19 1008.3 1006.6 0.0
26/04:30pm 31.8 30.1 18.0 43 9.0 E 24 35 13 19 1008.0 1006.3 0.0
26/04:17pm 32.0 28.8 18.6 45 8.8 E 33 44 18 24 1007.8 1006.1 0.0
26/04:01pm 35.9 30.5 16.1 30 12.7 ESE 39 50 21 27 1007.3 1005.6 0.0
26/04:00pm 35.8 33.6 16.0 30 12.6 S 22 50 12 27 1007.2 1005.5 0.0
26/03:30pm 37.4 35.3 15.2 26 14.1 SE 20 26 11 14 1007.3 1005.6 0.0
26/03:00pm 37.8 36.3 16.7 29 13.7 S 20 30 11 16 1007.6 1005.9 0.0
26/02:30pm 36.2 35.1 15.3 28 13.3 SSE 15 28 8 15 1008.1 1006.4 0.0
26/02:00pm 36.2 36.1 15.9 30 13.0 SSE 11 17 6 9 1008.5 1006.8 0.0
26/01:30pm 36.0 34.5 15.2 29 13.2 ESE 17 26 9 14 1008.8 1007.1 0.0
26/01:00pm 35.4 34.8 15.7 31 12.5 SSE 13 22 7 12 1009.1 1007.5 0.0
26/12:30pm 35.3 33.5 15.6 31 12.5 SE 19 26 10 14 1009.5 1007.9 0.0
26/12:00pm 34.5 34.6 15.4 32 12.0 S 9 15 5 8 1009.7 1008.1 0.0
26/11:30am 34.9 34.7 16.7 34 11.7 E 13 20 7 11 1010.1 1008.5 0.0
26/11:00am 33.4 33.0 16.3 36 10.9 ESE 13 22 7 12 1010.5 1008.9 0.0
26/10:30am 32.7 32.4 17.3 39 9.9 ESE 15 20 8 11 1011.0 1009.3 0.0
26/10:00am 32.1 31.5 17.6 42 9.4 E 17 24 9 13 1011.2 1009.5 0.0
26/09:30am 31.3 29.8 17.6 44 8.8 SE 22 32 12 17 1011.4 1009.7 0.0
26/09:00am 30.2 29.3 18.3 49 7.7 ESE 20 28 11 15 1011.3 1009.6 0.0
26/08:30am 28.9 28.8 19.5 57 6.2 SE 19 22 10 12 1011.5 1009.8 1.4
26/08:00am 28.0 30.4 20.8 65 4.8 S 9 15 5 8 1011.5 1009.8 1.4
26/07:30am 27.1 30.3 21.6 72 3.7 SW 7 11 4 6 1011.5 1009.8 1.4
26/07:00am 26.3 29.5 22.4 79 2.6 WSW 9 11 5 6 1011.3 1009.6 1.4
26/06:30am 25.7 29.2 22.8 84 2.0 WSW 9 13 5 7 1011.2 1009.5 1.4
26/06:00am 25.6 28.9 22.5 83 2.1 SW 9 15 5 8 1011.1 1009.4 1.4
26/05:30am 25.5 28.6 22.2 82 2.2 WSW 9 11 5 6 1010.7 1009.0 1.4
26/05:00am 25.4 28.5 22.1 82 2.2 SW 9 13 5 7 1010.3 1008.7 1.4
26/04:30am 25.3 28.5 22.4 84 2.0 SW 9 11 5 6 1010.1 1008.5 1.4
26/04:00am 25.3 29.6 22.6 85 1.8 SW 4 7 2 4 1010.0 1008.4 1.4
26/03:30am 25.3 30.1 22.2 83 2.1 CALM 0 0 0 0 1009.9 1008.3 1.4
26/03:00am 25.2 28.9 22.3 84 2.0 SW 6 7 3 4 1009.7 1008.1 1.4
26/02:30am 25.2 29.5 21.9 82 2.2 W 2 6 1 3 1009.8 1008.2 1.4
26/02:00am 25.3 29.0 22.2 83 2.1 NNW 6 7 3 4 1009.7 1008.1 1.4
26/01:30am 25.3 28.8 22.2 83 2.1 NNW 7 9 4 5 1009.8 1008.2 1.4
26/01:00am 25.1 28.5 21.6 81 2.3 WSW 6 13 3 7 1009.8 1008.2 1.4
26/12:30am 25.2 26.6 21.9 82 2.2 WSW 17 24 9 13 1009.8 1008.2 1.4
26/12:00am 25.4 27.8 22.3 83 2.1 W 13 19 7 10 1010.7 1009.0 1.2
 
Date/Time
CST
Temp
°C
App
Temp
°C
Dew
Point
Rel
Hum
%
Delta-T
°C
Wind Press
QNH
hPa
Press
MSL
hPa
Rain
since 9 am
mm
Dir
 
Spd
km/h
Gust
km/h
Spd
kts
Gust
kts
25/11:30pm 25.4 28.1 22.1 82 2.2 W 11 13 6 7 1011.5 1009.8 0.8
25/11:00pm 26.4 28.2 21.2 73 3.5 E 13 17 7 9 1011.9 1010.2 0.0
25/10:30pm 28.7 30.7 20.7 62 5.3 E 11 17 6 9 1012.4 1010.7 0.0
25/10:00pm 28.6 30.4 21.1 64 5.0 NNW 13 20 7 11 1011.5 1009.8 0.0
25/09:30pm 29.1 30.1 20.3 59 5.9 N 15 24 8 13 1011.3 1009.6 0.0
25/09:00pm 30.3 30.9 20.2 54 6.7 NNE 17 24 9 13 1011.0 1009.3 0.0
25/08:30pm 30.5 31.9 18.6 49 7.8 S 9 11 5 6 1009.8 1008.2 0.0
25/08:00pm 31.3 30.8 17.9 44 8.7 S 17 22 9 12 1009.7 1008.1 0.0
25/07:30pm 31.1 31.4 17.8 45 8.6 SSW 13 20 7 11 1009.1 1007.5 0.0
25/07:00pm 31.1 31.4 17.8 45 8.6 S 13 20 7 11 1008.8 1007.1 0.0

Other Formats:

Comma delimited format used in spreadsheet applications
http://www.bom.gov.au/fwo/IDD60801/IDD60801.94255.axf

JavaScript Object Notation format (JSON) in row-major order
http://www.bom.gov.au/fwo/IDD60801/IDD60801.94255.json